createdAt,value
2023-09-23T00:00:02.041Z,69.00434572059842
2023-09-23T00:15:01.704Z,69.26398088929865
2023-09-23T00:30:02.382Z,69.29446436473646
2023-09-23T00:45:02.098Z,69.18713847889971
2023-09-23T01:00:01.772Z,69.97958050939154
2023-09-23T01:15:02.440Z,69.82236949774531
2023-09-23T01:30:02.103Z,71.3267117761898
2023-09-23T01:45:01.767Z,71.33426287462436
2023-09-23T02:00:02.451Z,71.75494879783956
2023-09-23T02:15:02.123Z,72.98157540788655
2023-09-23T02:30:01.789Z,72.59314084693038
2023-09-23T02:45:02.542Z,72.44971713358879
2023-09-23T03:00:02.182Z,72.50407822444829
2023-09-23T03:15:01.868Z,72.20206331060982
2023-09-23T03:30:04.759Z,72.24731175429062
2023-09-23T03:45:01.703Z,72.21034165855468
2023-09-23T04:00:02.351Z,72.24413345480545
2023-09-23T04:15:01.992Z,71.97743332123824
2023-09-23T04:30:02.228Z,72.06064583811724
2023-09-23T04:45:01.931Z,72.2351134961306
2023-09-23T05:00:01.647Z,72.29452241932037
2023-09-23T05:15:02.297Z,72.70852040961854
2023-09-23T05:30:01.962Z,73.6497122737933
2023-09-23T05:45:01.644Z,73.56823473455283
2023-09-23T06:00:02.333Z,74.2200697191482
2023-09-23T06:15:02.006Z,75.0089058844609
2023-09-23T06:30:01.704Z,75.07940446985543
2023-09-23T06:45:02.328Z,75.67316183254252
2023-09-23T07:00:01.938Z,74.79793572033962
2023-09-23T07:15:01.660Z,74.71563150698343
2023-09-23T07:30:02.366Z,75.07104490951268
2023-09-23T07:45:01.966Z,74.8014465329716
2023-09-23T08:00:01.644Z,74.8071981798848
2023-09-23T08:15:02.281Z,75.07435844729348
2023-09-23T08:30:01.936Z,75.15848658493694
2023-09-23T08:45:01.702Z,75.96422125949604
2023-09-23T09:00:03.267Z,75.02400802208243
2023-09-23T09:15:02.055Z,74.76704512403101
2023-09-23T09:45:02.385Z,74.8210936614436
2023-09-23T10:00:02.142Z,74.4446047664291
2023-09-23T10:15:01.842Z,74.23680774514045
2023-09-23T10:30:02.582Z,73.88598164708918
2023-09-23T10:45:02.373Z,73.00744521943463
2023-09-23T11:00:02.035Z,72.07510924807254
2023-09-23T11:15:01.711Z,71.6666671888581
2023-09-23T11:30:02.433Z,71.35366481194754
2023-09-23T11:45:02.128Z,70.47516439316111
2023-09-23T12:00:01.824Z,70.40965208578557
2023-09-23T12:15:02.489Z,69.35254869226605
2023-09-23T12:30:02.443Z,69.50704345646169
2023-09-23T12:45:05.606Z,68.38881325129823
2023-09-23T13:00:02.135Z,68.43801232131763
2023-09-23T13:15:01.752Z,67.99972172774267
2023-09-23T13:30:02.433Z,67.45756926711873
2023-09-23T13:45:02.130Z,66.57066278837158
2023-09-23T14:00:01.811Z,66.18659277052751
2023-09-23T14:15:02.448Z,65.7540728164411
2023-09-23T14:30:02.143Z,65.42382622012286
2023-09-23T14:45:01.781Z,65.18560854348304
2023-09-23T15:00:02.511Z,65.20079525266567
2023-09-23T15:15:02.222Z,65.96052570630177
2023-09-23T15:30:01.950Z,65.84351182186401
2023-09-23T15:45:01.602Z,65.62852749971648
2023-09-23T16:00:02.272Z,65.94851759512439
2023-09-23T16:15:01.893Z,66.15030024977635
2023-09-23T16:30:01.620Z,66.29297716388614
2023-09-23T16:45:02.322Z,66.22445322371443
2023-09-23T17:00:02.012Z,66.371430975328
2023-09-23T17:15:01.797Z,66.5002070249476
2023-09-23T17:30:02.535Z,66.66376974090385
2023-09-23T17:45:02.229Z,67.01024190646667
2023-09-23T18:00:01.897Z,67.22642643724865
2023-09-23T18:15:02.553Z,67.71108613006004
2023-09-23T18:30:02.247Z,68.12396281258171
2023-09-23T18:45:01.958Z,68.42865747931995
2023-09-23T19:00:01.624Z,68.95486912326247
2023-09-23T19:15:02.268Z,69.12163599738793
2023-09-23T19:30:01.946Z,69.01595066001804
2023-09-23T19:45:01.757Z,69.52198710581656
2023-09-23T20:00:02.509Z,69.68001008071079
2023-09-23T20:15:02.173Z,70.00921174029018
2023-09-23T20:45:02.482Z,70.87293572742037
2023-09-23T21:00:02.143Z,70.92966403893313
2023-09-23T21:15:01.850Z,70.61377374663478
2023-09-23T21:30:02.530Z,70.772268244207
2023-09-23T21:45:02.142Z,70.55331539314669
2023-09-23T22:00:01.878Z,70.62046646508679
2023-09-23T22:15:01.594Z,70.82504966935956
2023-09-23T22:30:02.273Z,71.03855856840329
2023-09-23T22:45:01.915Z,70.99782293408401
2023-09-23T23:00:01.676Z,71.14784736217061
2023-09-23T23:15:02.326Z,70.90200020233807
2023-09-23T23:30:02.040Z,70.98063190195963
2023-09-23T23:45:01.721Z,71.23495281297274
